This is the latest recevied weather packets stored in our database for station/object FW0727. If no packets are shown the sender has not sent any weather packets the latest 10 day(s).
| Time | Temp. | Humidity | Pressure | Rain* | Wind** | Luminosity | Snow |
|---|---|---|---|---|---|---|---|
| 1777231536 | 11.11° C | 31% | 1016.3 hPa | - | - | - | - |
| 1777231184 | 11.67° C | 32% | 1016 hPa | - | - | - | - |
| 1777230831 | 11.67° C | 31% | 1015.9 hPa | - | - | - | - |
| 1777230479 | 11.67° C | 31% | 1015.7 hPa | - | - | - | - |
| 1777230128 | 11.67° C | 31% | 1015.6 hPa | - | - | - | - |
| 1777229776 | 11.67° C | 32% | 1015.4 hPa | - | - | - | - |
| 1777229423 | 12.22° C | 31% | 1015.2 hPa | - | - | - | - |
| 1777229071 | 12.22° C | 31% | 1015 hPa | - | - | - | - |
| 1777228719 | 12.78° C | 31% | 1014.8 hPa | - | - | - | - |
| 1777228367 | 12.78° C | 31% | 1014.6 hPa | - | - | - | - |
| 1777228015 | 12.78° C | 31% | 1014.5 hPa | - | - | - | - |
| 1777227663 | 12.78° C | 31% | 1014.3 hPa | - | - | - | - |
| 1777227311 | 13.33° C | 32% | 1014.1 hPa | - | - | - | - |
| 1777226959 | 13.33° C | 31% | 1013.8 hPa | - | - | - | - |
| 1777226607 | 13.33° C | 31% | 1013.6 hPa | - | - | - | - |
| 1777226256 | 13.33° C | 31% | 1013.4 hPa | - | - | - | - |
| 1777225904 | 13.89° C | 31% | 1013.3 hPa | - | - | - | - |
| 1777225551 | 13.89° C | 31% | 1013 hPa | - | - | - | - |
| 1777225199 | 14.44° C | 31% | 1012.8 hPa | - | - | - | - |
| 1777224847 | 14.44° C | 31% | 1012.8 hPa | - | - | - | - |
| 1777223836 | 15.56° C | 29% | 1011.8 hPa | - | - | - | - |
| 1777223485 | 15.56° C | 29% | 1011.5 hPa | - | - | - | - |
| 1777223132 | 16.11° C | 28% | 1011.2 hPa | - | - | - | - |
| 1777222459 | 16.67° C | 26% | 1010.8 hPa | - | - | - | - |
| 1777221778 | 18.89° C | 24% | 1009.9 hPa | - | - | - | - |
* Rain since midnight (hover to see other rain measurements)
** Current wind speed in m/s (hover to see current wind gust speed)